Station: EHBK - 25/02/2021 05:25Z (il y a 21 minutes)
EHBK 250525Z AUTO 20011KT 9999 NSC 11/06 Q1026 NOSIG
Vent du 200º - 11 kt
Visibilité > 10 km
Pas de nuages significatifs
Température: +11ºC - Point de rosée: +06ºC - QNH: 1026 hPa
Pas de changement significatif prévu dans les 2 heures qui suivent l'observation